createdAt,value
2023-05-23T00:00:37.985Z,19.90
2023-05-23T00:03:07.314Z,19.90
2023-05-23T00:05:35.280Z,19.90
2023-05-23T00:08:03.241Z,19.90
2023-05-23T00:10:31.065Z,19.80
2023-05-23T00:12:59.083Z,19.80
2023-05-23T00:15:27.173Z,19.80
2023-05-23T00:17:55.090Z,19.70
2023-05-23T00:20:24.817Z,19.70
2023-05-23T00:22:52.944Z,19.70
2023-05-23T00:25:21.989Z,19.70
2023-05-23T00:27:49.879Z,19.60
2023-05-23T00:30:18.046Z,19.60
2023-05-23T00:32:45.884Z,19.60
2023-05-23T00:35:13.746Z,19.60
2023-05-23T00:37:43.888Z,19.60
2023-05-23T00:40:12.593Z,19.50
2023-05-23T00:42:40.406Z,19.50
2023-05-23T00:45:09.138Z,19.50
2023-05-23T00:47:37.128Z,19.40
2023-05-23T00:50:05.489Z,19.40
2023-05-23T00:52:33.521Z,19.50
2023-05-23T00:55:02.996Z,19.40
2023-05-23T00:57:31.032Z,19.40
2023-05-23T00:59:59.029Z,19.40
2023-05-23T01:02:27.841Z,19.30
2023-05-23T01:04:56.792Z,19.30
2023-05-23T01:07:24.753Z,19.30
2023-05-23T01:09:52.680Z,19.30
2023-05-23T01:12:29.993Z,19.30
2023-05-23T01:15:04.300Z,19.30
2023-05-23T01:17:44.852Z,19.30
2023-05-23T01:20:14.181Z,19.20
2023-05-23T01:23:11.823Z,19.20
2023-05-23T01:25:59.281Z,19.20
2023-05-23T01:28:32.191Z,19.20
2023-05-23T01:31:04.552Z,19.20
2023-05-23T01:33:33.709Z,19.20
2023-05-23T01:36:04.364Z,19.10
2023-05-23T01:38:32.211Z,19.20
2023-05-23T01:41:00.193Z,19.10
2023-05-23T01:43:29.640Z,19.10
2023-05-23T01:45:58.483Z,19.10
2023-05-23T01:48:28.907Z,19.10
2023-05-23T01:50:57.319Z,19.10
2023-05-23T01:53:26.375Z,19.00
2023-05-23T01:55:54.491Z,19.00
2023-05-23T01:58:22.658Z,19.00
2023-05-23T02:00:51.890Z,19.00
2023-05-23T02:03:19.910Z,18.90
2023-05-23T02:05:47.836Z,19.00
2023-05-23T02:08:15.864Z,18.90
2023-05-23T02:10:43.750Z,18.90
2023-05-23T02:13:11.800Z,18.90
2023-05-23T02:15:39.833Z,18.90
2023-05-23T02:18:09.281Z,18.90
2023-05-23T02:20:37.191Z,18.80
2023-05-23T02:23:05.153Z,18.80
2023-05-23T02:25:32.975Z,18.80
2023-05-23T02:28:00.814Z,18.80
2023-05-23T02:30:28.639Z,18.80
2023-05-23T02:32:57.609Z,18.70
2023-05-23T02:35:26.848Z,18.70
2023-05-23T02:37:54.699Z,18.70
2023-05-23T02:40:22.714Z,18.70
2023-05-23T02:42:51.601Z,18.70
2023-05-23T02:45:19.618Z,18.60
2023-05-23T02:47:47.524Z,18.60
2023-05-23T02:50:16.025Z,18.60
2023-05-23T02:52:45.295Z,18.60
2023-05-23T02:55:13.165Z,18.50
2023-05-23T02:57:41.395Z,18.50
2023-05-23T03:00:12.178Z,18.50
2023-05-23T03:02:40.078Z,18.50
2023-05-23T03:05:09.210Z,18.50
2023-05-23T03:07:37.016Z,18.40
2023-05-23T03:10:07.420Z,18.40
2023-05-23T03:12:35.350Z,18.40
2023-05-23T03:15:03.290Z,18.30
2023-05-23T03:17:31.227Z,18.30
2023-05-23T03:19:59.048Z,18.30
2023-05-23T03:22:26.859Z,18.30
2023-05-23T03:24:54.702Z,18.30
2023-05-23T03:27:23.860Z,18.30
2023-05-23T03:29:51.907Z,18.30
2023-05-23T03:32:19.861Z,18.20
2023-05-23T03:34:47.769Z,18.20
2023-05-23T03:37:15.640Z,18.20
2023-05-23T03:39:43.519Z,18.20
2023-05-23T03:42:11.404Z,18.20
2023-05-23T03:44:40.590Z,18.10
2023-05-23T03:47:08.654Z,18.10
2023-05-23T03:49:36.486Z,18.10
2023-05-23T03:52:04.427Z,18.10
2023-05-23T03:54:32.224Z,18.10
2023-05-23T03:57:00.040Z,18.10
2023-05-23T03:59:27.902Z,18.00
2023-05-23T04:01:58.837Z,18.00
2023-05-23T04:04:26.759Z,18.00
2023-05-23T04:06:54.811Z,18.00
2023-05-23T04:09:23.020Z,18.00
2023-05-23T04:11:50.872Z,18.00
2023-05-23T04:14:20.160Z,17.90
2023-05-23T04:16:48.146Z,17.90
2023-05-23T04:19:17.629Z,17.90
2023-05-23T04:21:45.498Z,17.90
2023-05-23T04:24:13.300Z,17.90
2023-05-23T04:26:41.251Z,17.90
2023-05-23T04:29:09.107Z,17.90
2023-05-23T04:31:37.019Z,17.90
2023-05-23T04:34:05.008Z,17.90
2023-05-23T04:36:38.003Z,17.90
2023-05-23T04:39:06.248Z,17.90
2023-05-23T04:41:34.115Z,17.90
2023-05-23T04:44:02.082Z,17.80
2023-05-23T04:46:29.965Z,17.80
2023-05-23T04:48:58.947Z,17.80
2023-05-23T04:51:27.312Z,17.80
2023-05-23T04:53:56.839Z,17.80
2023-05-23T04:56:27.264Z,17.80
2023-05-23T04:58:55.219Z,17.80
2023-05-23T05:01:24.608Z,17.80
2023-05-23T05:03:53.293Z,17.80
2023-05-23T05:06:21.603Z,17.70
2023-05-23T05:08:49.470Z,17.70
2023-05-23T05:11:18.695Z,17.70
2023-05-23T05:13:46.582Z,17.70
2023-05-23T05:16:14.522Z,17.70
2023-05-23T05:18:42.785Z,17.70
2023-05-23T05:21:10.691Z,17.70
2023-05-23T05:23:38.555Z,17.60
2023-05-23T05:26:06.542Z,17.60
2023-05-23T05:28:35.771Z,17.60
2023-05-23T05:31:05.331Z,17.60
2023-05-23T05:33:36.192Z,17.60
2023-05-23T05:36:04.431Z,17.60
2023-05-23T05:38:32.301Z,17.50
2023-05-23T05:41:00.223Z,17.50
2023-05-23T05:43:28.150Z,17.50
2023-05-23T05:45:57.571Z,17.50
2023-05-23T05:48:25.484Z,17.50
2023-05-23T05:50:53.404Z,17.50
2023-05-23T05:53:21.286Z,17.50
2023-05-23T05:55:49.214Z,17.50
2023-05-23T05:58:17.080Z,17.40
2023-05-23T06:00:45.258Z,17.40
2023-05-23T06:03:14.623Z,17.40
2023-05-23T06:05:43.196Z,17.40
2023-05-23T06:08:11.069Z,17.40
2023-05-23T06:10:39.436Z,17.30
2023-05-23T06:13:07.634Z,17.40
2023-05-23T06:15:35.493Z,17.30
2023-05-23T06:18:03.397Z,17.30
2023-05-23T06:20:32.607Z,17.30
2023-05-23T06:23:01.781Z,17.30
2023-05-23T06:25:29.634Z,17.30
2023-05-23T06:27:57.498Z,17.30
2023-05-23T06:30:25.380Z,17.30
2023-05-23T06:32:53.331Z,17.30
2023-05-23T06:35:21.275Z,17.30
2023-05-23T06:37:50.507Z,17.30
2023-05-23T06:40:18.386Z,17.30
2023-05-23T06:42:46.224Z,17.30
2023-05-23T06:45:16.467Z,17.30
2023-05-23T06:47:45.537Z,17.30
2023-05-23T06:50:13.666Z,17.30
2023-05-23T06:52:42.963Z,17.30
2023-05-23T06:55:15.401Z,17.30
2023-05-23T06:57:43.311Z,17.40
2023-05-23T07:00:13.609Z,17.30
2023-05-23T07:02:41.620Z,17.30
2023-05-23T07:05:10.103Z,17.30
2023-05-23T07:07:38.064Z,17.30
2023-05-23T07:10:06.785Z,17.30
2023-05-23T07:12:36.393Z,17.30
2023-05-23T07:15:04.578Z,17.30
2023-05-23T07:17:32.937Z,17.30
2023-05-23T07:20:00.922Z,17.30
2023-05-23T07:22:28.762Z,17.30
2023-05-23T07:24:56.654Z,17.30
2023-05-23T07:27:24.565Z,17.30
2023-05-23T07:29:53.869Z,17.20
2023-05-23T07:32:21.773Z,17.30
2023-05-23T07:34:49.676Z,17.30
2023-05-23T07:37:17.616Z,17.30
2023-05-23T07:39:45.552Z,17.30
2023-05-23T07:42:13.437Z,17.30
2023-05-23T07:44:42.796Z,17.30
2023-05-23T07:47:11.998Z,17.30
2023-05-23T07:49:39.896Z,17.30
2023-05-23T07:52:07.967Z,17.30
2023-05-23T07:54:35.855Z,17.30
2023-05-23T07:57:03.740Z,17.40
2023-05-23T07:59:31.567Z,17.40
2023-05-23T08:01:59.466Z,17.40
2023-05-23T08:04:29.116Z,17.40
2023-05-23T08:09:27.939Z,17.40
2023-05-23T08:11:55.802Z,17.40
2023-05-23T08:14:24.729Z,17.40
2023-05-23T08:16:55.465Z,17.40
2023-05-23T08:19:23.492Z,17.40
2023-05-23T08:21:53.205Z,17.50
2023-05-23T08:24:21.529Z,17.40
2023-05-23T08:26:50.814Z,17.50
2023-05-23T08:29:18.917Z,17.50
2023-05-23T08:31:46.861Z,17.40
2023-05-23T08:34:15.015Z,17.40
2023-05-23T08:36:43.199Z,17.50
2023-05-23T08:39:14.108Z,17.50
2023-05-23T08:41:42.395Z,17.50
2023-05-23T08:44:10.328Z,17.50
2023-05-23T08:46:45.348Z,17.50
2023-05-23T08:49:16.140Z,17.50
2023-05-23T08:51:44.683Z,17.50
2023-05-23T08:54:14.142Z,17.60
2023-05-23T08:56:43.670Z,17.50
2023-05-23T08:59:14.101Z,17.60
2023-05-23T09:01:46.216Z,17.60
2023-05-23T09:04:14.309Z,17.60
2023-05-23T09:06:42.231Z,17.60
2023-05-23T09:09:10.187Z,17.60
2023-05-23T09:11:40.062Z,17.60
2023-05-23T09:14:08.931Z,17.60
2023-05-23T09:16:36.962Z,17.60
2023-05-23T09:19:12.411Z,17.60
2023-05-23T09:21:44.636Z,17.70
2023-05-23T09:24:12.705Z,17.70
2023-05-23T09:26:41.941Z,17.70
2023-05-23T09:29:09.822Z,17.70
2023-05-23T09:31:37.737Z,17.80
2023-05-23T09:34:06.802Z,17.80
2023-05-23T09:36:35.061Z,17.80
2023-05-23T09:39:06.088Z,17.80
2023-05-23T09:41:35.233Z,17.80
2023-05-23T09:44:09.989Z,17.80
2023-05-23T09:46:39.222Z,17.80
2023-05-23T09:49:18.161Z,17.90
2023-05-23T09:51:57.684Z,17.90
2023-05-23T09:54:25.796Z,18.00
2023-05-23T09:56:56.175Z,18.00
2023-05-23T09:59:29.377Z,18.00
2023-05-23T10:01:58.474Z,18.00
2023-05-23T10:04:28.034Z,18.10
2023-05-23T10:07:00.174Z,18.10
2023-05-23T10:09:33.055Z,18.20
2023-05-23T10:12:34.429Z,18.20
2023-05-23T10:15:04.829Z,18.30
2023-05-23T10:17:40.963Z,18.30
2023-05-23T10:20:13.557Z,18.30
2023-05-23T10:22:42.120Z,18.30
2023-05-23T10:25:10.906Z,18.30
2023-05-23T10:27:40.029Z,18.30
2023-05-23T10:30:11.258Z,18.30
2023-05-23T10:32:40.806Z,18.30
2023-05-23T10:35:16.421Z,18.30
2023-05-23T10:37:51.034Z,18.40
2023-05-23T10:40:28.891Z,18.40
2023-05-23T10:43:04.085Z,18.40
2023-05-23T10:45:42.476Z,18.40
2023-05-23T10:48:22.757Z,18.40
2023-05-23T10:51:04.882Z,18.40
2023-05-23T10:53:35.791Z,18.60
2023-05-23T10:56:06.113Z,18.60
2023-05-23T10:58:34.443Z,18.70
2023-05-23T11:01:07.769Z,18.70
2023-05-23T11:03:37.958Z,18.80
2023-05-23T11:06:06.996Z,18.80
2023-05-23T11:08:48.602Z,18.90
2023-05-23T11:11:17.109Z,18.80
2023-05-23T11:14:00.239Z,18.80
2023-05-23T11:16:31.883Z,18.80
2023-05-23T11:19:29.344Z,18.80
2023-05-23T11:22:01.191Z,18.70
2023-05-23T11:24:52.134Z,18.70
2023-05-23T11:27:27.398Z,18.60
2023-05-23T11:30:05.330Z,18.60
2023-05-23T11:32:34.952Z,18.60
2023-05-23T11:35:03.777Z,18.60
2023-05-23T11:37:32.330Z,18.60
2023-05-23T11:40:02.037Z,18.60
2023-05-23T11:42:29.907Z,18.60
2023-05-23T11:44:58.136Z,18.60
2023-05-23T11:47:26.103Z,18.60
2023-05-23T11:49:56.297Z,18.60
2023-05-23T11:52:24.160Z,18.70
2023-05-23T11:54:54.932Z,18.70
2023-05-23T11:57:23.567Z,18.70
2023-05-23T11:59:52.824Z,18.70
2023-05-23T12:02:22.441Z,18.70
2023-05-23T12:04:50.811Z,18.80
2023-05-23T12:07:22.054Z,18.80
2023-05-23T12:09:50.022Z,18.80
2023-05-23T12:12:17.939Z,18.90
2023-05-23T12:14:46.252Z,18.90
2023-05-23T12:17:14.407Z,18.90
2023-05-23T12:19:47.325Z,18.90
2023-05-23T12:22:15.221Z,18.90
2023-05-23T12:24:48.327Z,18.90
2023-05-23T12:27:18.520Z,18.90
2023-05-23T12:29:52.470Z,18.90
2023-05-23T12:32:20.460Z,18.90
2023-05-23T12:34:50.349Z,18.90
2023-05-23T12:37:20.450Z,18.90
2023-05-23T12:39:50.161Z,18.90
2023-05-23T12:42:18.155Z,18.90
2023-05-23T12:44:46.992Z,19.00
2023-05-23T12:47:15.075Z,19.00
2023-05-23T12:49:44.825Z,19.10
2023-05-23T12:52:12.723Z,19.00
2023-05-23T12:54:40.609Z,19.10
2023-05-23T12:57:10.132Z,19.20
2023-05-23T12:59:38.007Z,19.30
2023-05-23T13:02:06.068Z,19.30
2023-05-23T13:04:33.969Z,19.30
2023-05-23T13:07:01.889Z,19.30
2023-05-23T13:09:29.728Z,19.20
2023-05-23T13:11:58.750Z,19.20
2023-05-23T13:14:28.065Z,19.20
2023-05-23T13:16:56.011Z,19.10
2023-05-23T13:19:23.899Z,19.10
2023-05-23T13:21:51.808Z,19.10
2023-05-23T13:24:19.672Z,19.10
2023-05-23T13:26:47.577Z,19.10
2023-05-23T13:29:15.445Z,19.10
2023-05-23T13:31:44.652Z,19.10
2023-05-23T13:34:12.523Z,19.20
2023-05-23T13:36:40.477Z,19.20
2023-05-23T13:39:08.415Z,19.20
2023-05-23T13:41:36.482Z,19.30
2023-05-23T13:44:04.560Z,19.30
2023-05-23T13:46:32.518Z,19.30
2023-05-23T13:49:01.812Z,19.30
2023-05-23T13:51:29.677Z,19.30
2023-05-23T13:53:57.531Z,19.40
2023-05-23T13:56:25.454Z,19.50
2023-05-23T13:58:53.412Z,19.50
2023-05-23T14:01:21.401Z,19.50
2023-05-23T14:03:49.294Z,19.50
2023-05-23T14:06:18.793Z,19.60
2023-05-23T14:08:46.620Z,19.60
2023-05-23T14:11:14.503Z,19.60
2023-05-23T14:13:42.385Z,19.60
2023-05-23T14:16:10.420Z,19.50
2023-05-23T14:18:38.364Z,19.50
2023-05-23T14:21:06.300Z,19.50
2023-05-23T14:23:35.488Z,19.50
2023-05-23T14:26:03.462Z,19.60
2023-05-23T14:28:31.407Z,19.60
2023-05-23T14:30:59.362Z,19.60
2023-05-23T14:33:27.487Z,19.60
2023-05-23T14:35:55.555Z,19.50
2023-05-23T14:38:23.458Z,19.50
2023-05-23T14:40:53.629Z,19.50
2023-05-23T14:43:21.557Z,19.50
2023-05-23T14:45:49.628Z,19.50
2023-05-23T14:48:17.630Z,19.50
2023-05-23T14:50:45.678Z,19.50
2023-05-23T14:53:13.646Z,19.50
2023-05-23T14:55:41.788Z,19.40
2023-05-23T14:58:11.303Z,19.40
2023-05-23T15:00:40.635Z,19.40
2023-05-23T15:03:08.738Z,19.30
2023-05-23T15:05:36.683Z,19.30
2023-05-23T15:08:04.831Z,19.30
2023-05-23T15:10:32.761Z,19.30
2023-05-23T15:13:00.636Z,19.30
2023-05-23T15:15:37.154Z,19.40
2023-05-23T15:18:07.920Z,19.40
2023-05-23T15:20:36.667Z,19.50
2023-05-23T15:23:05.038Z,19.50
2023-05-23T15:25:47.781Z,19.50
2023-05-23T15:28:17.209Z,19.60
2023-05-23T15:30:46.512Z,19.60
2023-05-23T15:33:15.797Z,19.60
2023-05-23T15:35:44.012Z,19.70
2023-05-23T15:38:14.133Z,19.70
2023-05-23T15:40:42.875Z,19.70
2023-05-23T15:43:10.903Z,19.70
2023-05-23T15:45:38.778Z,19.70
2023-05-23T15:48:08.016Z,19.70
2023-05-23T15:50:35.935Z,19.70
2023-05-23T15:53:03.891Z,19.80
2023-05-23T15:55:31.935Z,19.80
2023-05-23T15:57:59.834Z,19.80
2023-05-23T16:00:27.847Z,19.80
2023-05-23T16:02:55.722Z,19.80
2023-05-23T16:05:25.704Z,19.90
2023-05-23T16:07:53.582Z,19.80
2023-05-23T16:10:21.498Z,19.80
2023-05-23T16:12:49.420Z,19.80
2023-05-23T16:15:17.323Z,19.80
2023-05-23T16:17:45.327Z,19.70
2023-05-23T16:20:13.760Z,19.70
2023-05-23T16:22:42.972Z,19.70
2023-05-23T16:25:11.726Z,19.60
2023-05-23T16:27:40.492Z,19.60
2023-05-23T16:30:09.722Z,19.50
2023-05-23T16:32:37.709Z,19.40
2023-05-23T16:35:06.150Z,19.40
2023-05-23T16:37:34.113Z,19.30
2023-05-23T16:40:03.326Z,19.30
2023-05-23T16:42:31.160Z,19.30
2023-05-23T16:44:59.090Z,19.30
2023-05-23T16:47:27.099Z,19.30
2023-05-23T16:49:55.167Z,19.30
2023-05-23T16:52:23.101Z,19.30
2023-05-23T16:54:51.176Z,19.30
2023-05-23T16:57:20.389Z,19.30
2023-05-23T16:59:48.252Z,19.40
2023-05-23T17:02:16.768Z,19.40
2023-05-23T17:04:44.678Z,19.40
2023-05-23T17:07:12.551Z,19.40
2023-05-23T17:09:40.725Z,19.40
2023-05-23T17:12:08.778Z,19.50
2023-05-23T17:14:38.008Z,19.40
2023-05-23T17:17:06.554Z,19.40
2023-05-23T17:19:34.505Z,19.40
2023-05-23T17:22:03.133Z,19.40
2023-05-23T17:24:31.769Z,19.30
2023-05-23T17:26:59.784Z,19.30
2023-05-23T17:29:27.667Z,19.30
2023-05-23T17:31:57.328Z,19.30
2023-05-23T17:34:25.266Z,19.30
2023-05-23T17:36:53.209Z,19.20
2023-05-23T17:39:21.079Z,19.20
2023-05-23T17:41:48.968Z,19.20
2023-05-23T17:44:16.865Z,19.10
2023-05-23T17:46:44.926Z,19.00
2023-05-23T17:49:14.237Z,19.00
2023-05-23T17:51:42.066Z,19.10
2023-05-23T17:54:10.024Z,19.00
2023-05-23T17:56:37.945Z,19.00
2023-05-23T17:59:06.206Z,19.00
2023-05-23T18:01:34.448Z,19.00
2023-05-23T18:04:02.848Z,19.00
2023-05-23T18:06:32.079Z,19.00
2023-05-23T18:09:00.127Z,18.90
2023-05-23T18:11:28.407Z,18.90
2023-05-23T18:13:56.376Z,18.80
2023-05-23T18:16:24.302Z,18.80
2023-05-23T18:18:52.252Z,18.80
2023-05-23T18:21:20.243Z,18.80
2023-05-23T18:23:49.459Z,18.70
2023-05-23T18:26:17.397Z,18.70
2023-05-23T18:28:45.291Z,18.70
2023-05-23T18:31:13.190Z,18.60
2023-05-23T18:33:41.291Z,18.60
2023-05-23T18:36:09.385Z,18.60
2023-05-23T18:38:37.254Z,18.60
2023-05-23T18:41:06.641Z,18.60
2023-05-23T18:43:34.532Z,18.60
2023-05-23T18:46:02.484Z,18.60
2023-05-23T18:48:31.149Z,18.60
2023-05-23T18:51:00.301Z,18.60
2023-05-23T18:53:28.231Z,18.50
2023-05-23T18:55:56.679Z,18.50
2023-05-23T18:58:26.475Z,18.40
2023-05-23T19:00:54.298Z,18.40
2023-05-23T19:03:22.239Z,18.30
2023-05-23T19:05:50.340Z,18.30
2023-05-23T19:08:18.573Z,18.30
2023-05-23T19:10:46.543Z,18.20
2023-05-23T19:13:14.476Z,18.20
2023-05-23T19:15:45.600Z,18.20
2023-05-23T19:18:13.315Z,18.10
2023-05-23T19:20:42.777Z,18.10
2023-05-23T19:23:10.798Z,18.10
2023-05-23T19:25:39.245Z,18.00
2023-05-23T19:28:07.578Z,18.00
2023-05-23T19:30:35.862Z,18.00
2023-05-23T19:33:05.254Z,17.90
2023-05-23T19:35:33.880Z,17.90
2023-05-23T19:38:01.919Z,17.90
2023-05-23T19:40:29.819Z,17.80
2023-05-23T19:42:57.750Z,17.70
2023-05-23T19:45:25.775Z,17.70
2023-05-23T19:47:53.672Z,17.70
2023-05-23T19:50:23.039Z,17.60
2023-05-23T19:52:51.353Z,17.60
2023-05-23T19:55:19.467Z,17.60
2023-05-23T19:57:47.369Z,17.60
2023-05-23T20:00:16.280Z,17.50
2023-05-23T20:02:44.976Z,17.50
2023-05-23T20:05:12.902Z,17.50
2023-05-23T20:07:42.157Z,17.50
2023-05-23T20:10:10.663Z,17.40
2023-05-23T20:12:38.593Z,17.40
2023-05-23T20:15:07.650Z,17.40
2023-05-23T20:17:36.139Z,17.40
2023-05-23T20:20:04.838Z,17.40
2023-05-23T20:22:32.745Z,17.40
2023-05-23T20:25:02.302Z,17.40
2023-05-23T20:27:30.214Z,17.30
2023-05-23T20:29:58.093Z,17.30
2023-05-23T20:32:26.092Z,17.20
2023-05-23T20:34:54.007Z,17.20
2023-05-23T20:37:21.917Z,17.20
2023-05-23T20:39:49.825Z,17.20
2023-05-23T20:42:19.163Z,17.20
2023-05-23T20:44:47.264Z,17.20
2023-05-23T20:47:17.536Z,17.10
2023-05-23T20:49:47.588Z,17.10
2023-05-23T20:52:15.503Z,17.10
2023-05-23T20:54:43.364Z,17.00
2023-05-23T20:57:11.270Z,17.00
2023-05-23T20:59:40.718Z,16.90
2023-05-23T21:02:08.894Z,16.90
2023-05-23T21:04:36.837Z,16.90
2023-05-23T21:07:05.060Z,17.00
2023-05-23T21:09:32.980Z,17.00
2023-05-23T21:12:00.864Z,17.00
2023-05-23T21:14:28.764Z,17.00
2023-05-23T21:16:58.018Z,16.90
2023-05-23T21:19:25.948Z,16.90
2023-05-23T21:21:56.107Z,16.90
2023-05-23T21:24:25.301Z,16.90
2023-05-23T21:26:53.283Z,16.80
2023-05-23T21:29:21.144Z,16.80
2023-05-23T21:31:49.145Z,16.80
2023-05-23T21:34:23.962Z,16.80
2023-05-23T21:36:52.485Z,16.80
2023-05-23T21:39:20.459Z,16.80
2023-05-23T21:41:48.315Z,16.80
2023-05-23T21:44:17.555Z,16.80
2023-05-23T21:46:45.769Z,16.80
2023-05-23T21:49:13.918Z,16.80
2023-05-23T21:51:44.035Z,16.80
2023-05-23T21:54:11.962Z,16.70
2023-05-23T21:56:39.809Z,16.70
2023-05-23T21:59:07.734Z,16.70
2023-05-23T22:01:35.832Z,16.70
2023-05-23T22:04:03.841Z,16.70
2023-05-23T22:06:33.159Z,16.70
2023-05-23T22:09:02.513Z,16.60
2023-05-23T22:11:34.230Z,16.60
2023-05-23T22:14:02.427Z,16.60
2023-05-23T22:16:32.834Z,16.60
2023-05-23T22:19:02.061Z,16.60
2023-05-23T22:21:30.155Z,16.50
2023-05-23T22:23:58.567Z,16.60
2023-05-23T22:26:28.068Z,16.60
2023-05-23T22:28:56.358Z,16.60
2023-05-23T22:31:24.759Z,16.60
2023-05-23T22:33:52.984Z,16.60
2023-05-23T22:36:21.886Z,16.60
2023-05-23T22:38:50.057Z,16.60
2023-05-23T22:41:20.799Z,16.60
2023-05-23T22:43:50.077Z,16.50
2023-05-23T22:46:17.964Z,16.50
2023-05-23T22:48:45.865Z,16.50
2023-05-23T22:51:14.617Z,16.50
2023-05-23T22:53:43.211Z,16.40
2023-05-23T22:56:11.098Z,16.40
2023-05-23T22:58:39.079Z,16.40
2023-05-23T23:01:08.329Z,16.40
2023-05-23T23:03:36.287Z,16.40
2023-05-23T23:06:06.009Z,16.40
2023-05-23T23:08:34.187Z,16.40
2023-05-23T23:11:02.170Z,16.40
2023-05-23T23:13:30.094Z,16.40
2023-05-23T23:15:59.048Z,16.40
2023-05-23T23:18:28.267Z,16.40
2023-05-23T23:20:56.210Z,16.40
2023-05-23T23:23:24.231Z,16.30
2023-05-23T23:25:52.361Z,16.30
2023-05-23T23:28:21.024Z,16.30
2023-05-23T23:30:49.123Z,16.30
2023-05-23T23:33:17.111Z,16.30
2023-05-23T23:35:48.481Z,16.30
2023-05-23T23:38:16.705Z,16.30
2023-05-23T23:40:45.604Z,16.30
2023-05-23T23:43:13.741Z,16.20
2023-05-23T23:45:41.650Z,16.20
2023-05-23T23:48:09.651Z,16.20
2023-05-23T23:50:37.555Z,16.20
2023-05-23T23:53:07.790Z,16.20
2023-05-23T23:55:35.659Z,16.20
2023-05-23T23:58:03.540Z,16.10
